createdAt,value
2019-01-18T00:01:23.833Z,1.30
2019-01-18T00:04:13.322Z,1.30
2019-01-18T00:06:56.502Z,2.50
2019-01-18T00:09:45.980Z,1.63
2019-01-18T00:12:30.208Z,1.53
2019-01-18T00:15:19.840Z,1.30
2019-01-18T00:18:01.584Z,2.50
2019-01-18T00:20:51.131Z,2.90
2019-01-18T00:23:33.317Z,1.73
2019-01-18T00:26:22.830Z,2.63
2019-01-18T00:29:05.012Z,1.30
2019-01-18T00:31:54.510Z,1.87
2019-01-18T00:34:37.121Z,1.53
2019-01-18T00:37:47.712Z,1.30
2019-01-18T00:40:37.247Z,1.20
2019-01-18T00:43:26.843Z,2.00
2019-01-18T00:46:09.349Z,2.00
2019-01-18T00:48:58.826Z,1.50
2019-01-18T00:51:40.929Z,2.07
2019-01-18T00:54:22.986Z,3.77
2019-01-18T01:00:22.207Z,2.67
2019-01-18T01:03:11.760Z,3.23
2019-01-18T01:05:53.991Z,1.97
2019-01-18T01:09:02.383Z,1.60
2019-01-18T01:11:45.165Z,4.13
2019-01-18T01:17:35.842Z,1.53
2019-01-18T01:20:25.354Z,2.20
2019-01-18T01:26:02.494Z,1.60
2019-01-18T01:28:51.999Z,1.40
2019-01-18T01:31:34.034Z,2.57
2019-01-18T01:34:23.544Z,1.43
2019-01-18T01:37:05.354Z,1.20
2019-01-18T01:39:54.916Z,1.20
2019-01-18T01:42:38.344Z,0.90
2019-01-18T01:45:27.850Z,1.27
2019-01-18T01:48:09.567Z,0.90
2019-01-18T01:50:59.149Z,1.87
2019-01-18T01:53:41.698Z,0.90
2019-01-18T01:59:37.926Z,1.30
2019-01-18T02:02:27.561Z,1.73
2019-01-18T02:08:25.418Z,1.90
2019-01-18T02:14:16.294Z,1.20
2019-01-18T02:16:58.347Z,1.70
2019-01-18T02:22:54.365Z,1.47
2019-01-18T02:25:43.973Z,1.83
2019-01-18T02:28:33.460Z,3.80
2019-01-18T02:31:15.889Z,2.80
2019-01-18T02:34:05.399Z,2.27
2019-01-18T02:36:47.679Z,3.23
2019-01-18T02:39:37.208Z,2.10
2019-01-18T02:42:19.692Z,2.73
2019-01-18T02:48:37.610Z,2.73
2019-01-18T02:51:27.102Z,3.53
2019-01-18T02:54:09.558Z,4.57
2019-01-18T02:57:17.948Z,3.47
2019-01-18T03:00:05.055Z,3.03
2019-01-18T03:06:00.149Z,4.57
2019-01-18T03:08:49.662Z,4.10
2019-01-18T03:11:31.484Z,3.50
2019-01-18T03:14:20.989Z,3.07
2019-01-18T03:17:03.112Z,3.93
2019-01-18T03:19:52.591Z,3.67
2019-01-18T03:22:34.279Z,3.10
2019-01-18T03:28:54.582Z,2.03
2019-01-18T03:32:03.020Z,3.20
2019-01-18T03:34:45.526Z,2.90
2019-01-18T03:37:54.072Z,3.60
2019-01-18T03:40:36.061Z,2.20
2019-01-18T03:43:25.550Z,4.10
2019-01-18T03:46:07.927Z,4.27
2019-01-18T03:49:08.065Z,5.20
2019-01-18T03:51:57.605Z,3.80
2019-01-18T03:54:39.529Z,3.07
2019-01-18T03:57:29.028Z,4.10
2019-01-18T04:00:12.534Z,3.43
2019-01-18T04:03:02.065Z,5.53
2019-01-18T04:05:44.248Z,3.53
2019-01-18T04:08:52.650Z,5.33
2019-01-18T04:11:34.772Z,3.97
2019-01-18T04:17:31.136Z,2.40
2019-01-18T04:23:41.780Z,2.60
2019-01-18T04:26:24.180Z,2.50
2019-01-18T04:32:15.239Z,3.27
2019-01-18T04:34:57.754Z,2.83
2019-01-18T04:37:47.384Z,2.83
2019-01-18T04:40:38.647Z,2.17
2019-01-18T04:43:28.194Z,3.70
2019-01-18T04:46:10.472Z,2.50
2019-01-18T04:48:59.967Z,2.80
2019-01-18T04:51:42.048Z,2.73
2019-01-18T04:54:24.400Z,5.40
2019-01-18T04:57:13.978Z,2.70
2019-01-18T04:59:56.019Z,2.63
2019-01-18T05:05:54.201Z,2.43
2019-01-18T05:08:43.785Z,4.53
2019-01-18T05:11:25.851Z,3.13
2019-01-18T05:14:15.432Z,2.20
2019-01-18T05:16:58.038Z,2.67
2019-01-18T05:19:47.544Z,4.27
2019-01-18T05:22:29.308Z,4.27
2019-01-18T05:28:27.581Z,3.17
2019-01-18T05:31:17.185Z,5.53
2019-01-18T05:33:59.612Z,2.50
2019-01-18T05:39:56.438Z,3.73
2019-01-18T05:42:46.179Z,3.20
2019-01-18T05:45:35.687Z,3.20
2019-01-18T05:48:21.761Z,3.50
2019-01-18T05:51:04.359Z,3.07
2019-01-18T05:53:46.346Z,6.53
2019-01-18T05:56:35.993Z,3.77
2019-01-18T05:59:44.436Z,5.60
2019-01-18T06:02:27.265Z,3.67
2019-01-18T06:08:25.425Z,4.73
2019-01-18T06:11:14.972Z,3.33
2019-01-18T06:13:57.406Z,3.77
2019-01-18T06:17:07.230Z,4.03
2019-01-18T06:19:52.357Z,3.43
2019-01-18T06:22:41.931Z,3.63
2019-01-18T06:25:24.279Z,3.23
2019-01-18T06:28:13.812Z,3.47
2019-01-18T06:31:01.595Z,2.83
2019-01-18T06:33:47.484Z,3.57
2019-01-18T06:36:30.072Z,2.93
2019-01-18T06:39:19.616Z,5.20
2019-01-18T06:42:02.143Z,5.70
2019-01-18T06:45:10.540Z,3.20
2019-01-18T06:47:53.119Z,4.30
2019-01-18T06:53:52.536Z,3.77
2019-01-18T06:56:42.098Z,5.07
2019-01-18T06:59:24.139Z,3.33
2019-01-18T07:02:13.671Z,2.27
2019-01-18T07:04:56.022Z,3.20
2019-01-18T07:07:45.728Z,3.27
2019-01-18T07:10:35.305Z,3.73
2019-01-18T07:13:18.637Z,3.37
2019-01-18T07:19:16.156Z,4.13
2019-01-18T07:22:05.897Z,3.07
2019-01-18T07:24:48.382Z,4.83
2019-01-18T07:27:57.058Z,3.87
2019-01-18T07:30:40.211Z,3.77
2019-01-18T07:33:29.763Z,3.80
2019-01-18T07:36:12.624Z,4.63
2019-01-18T07:39:02.404Z,6.40
2019-01-18T07:41:45.414Z,2.20
2019-01-18T07:44:34.936Z,4.27
2019-01-18T07:47:18.101Z,3.30
2019-01-18T07:53:30.088Z,3.53
2019-01-18T07:56:11.932Z,2.70
2019-01-18T07:59:01.457Z,2.67
2019-01-18T08:01:43.191Z,2.67
2019-01-18T08:04:32.713Z,2.53
2019-01-18T08:07:15.405Z,4.23
2019-01-18T08:13:32.137Z,2.33
2019-01-18T08:16:21.676Z,5.10
2019-01-18T08:19:11.182Z,1.83
2019-01-18T08:21:53.329Z,2.50
2019-01-18T08:24:42.863Z,2.97
2019-01-18T08:27:24.555Z,2.27
2019-01-18T08:30:16.903Z,1.90
2019-01-18T08:33:25.402Z,4.30
2019-01-18T08:36:14.950Z,2.37
2019-01-18T08:38:57.123Z,2.03
2019-01-18T08:41:46.670Z,2.13
2019-01-18T08:44:28.591Z,2.63
2019-01-18T08:50:25.184Z,4.73
2019-01-18T08:53:14.755Z,4.33
2019-01-18T08:56:04.666Z,2.23
2019-01-18T08:58:47.114Z,2.97
2019-01-18T09:01:36.727Z,2.63
2019-01-18T09:04:20.230Z,3.00
2019-01-18T09:07:02.532Z,3.53
2019-01-18T09:12:53.212Z,4.17
2019-01-18T09:15:42.732Z,3.17
2019-01-18T09:21:18.151Z,3.07
2019-01-18T09:24:07.694Z,3.03
2019-01-18T09:26:50.261Z,2.63
2019-01-18T09:29:39.833Z,2.03
2019-01-18T09:32:22.501Z,2.93
2019-01-18T09:38:27.257Z,3.97
2019-01-18T09:41:16.799Z,4.73
2019-01-18T09:44:06.334Z,3.73
2019-01-18T09:46:48.875Z,2.27
2019-01-18T09:49:38.417Z,3.60
2019-01-18T09:52:20.970Z,2.47
2019-01-18T09:55:10.573Z,4.03
2019-01-18T09:57:53.077Z,1.83
2019-01-18T10:00:42.565Z,3.23
2019-01-18T10:03:25.197Z,3.70
2019-01-18T10:06:14.823Z,2.90
2019-01-18T10:08:56.893Z,3.80
2019-01-18T10:11:46.414Z,2.87
2019-01-18T10:14:28.780Z,2.37
2019-01-18T10:17:18.290Z,2.37
2019-01-18T10:20:02.683Z,5.03
2019-01-18T10:22:52.145Z,3.07
2019-01-18T10:25:41.694Z,2.27
2019-01-18T10:28:23.851Z,4.57
2019-01-18T10:31:13.640Z,3.00
2019-01-18T10:33:55.929Z,2.67
2019-01-18T10:36:48.462Z,4.20
2019-01-18T10:39:30.103Z,6.40
2019-01-18T10:42:19.614Z,4.50
2019-01-18T10:45:01.614Z,3.27
2019-01-18T10:47:51.259Z,4.23
2019-01-18T10:53:48.689Z,2.97
2019-01-18T10:56:38.316Z,2.70
2019-01-18T10:59:20.800Z,3.27
2019-01-18T11:02:10.287Z,3.97
2019-01-18T11:04:52.766Z,2.70
2019-01-18T11:10:50.580Z,2.20
2019-01-18T11:13:40.105Z,2.20
2019-01-18T11:16:22.601Z,2.97
2019-01-18T11:19:12.135Z,3.37
2019-01-18T11:21:53.964Z,2.50
2019-01-18T11:27:51.287Z,1.87
2019-01-18T11:30:40.805Z,3.10
2019-01-18T11:33:30.291Z,2.97
2019-01-18T11:36:12.304Z,2.17
2019-01-18T11:41:54.917Z,2.70
2019-01-18T11:44:44.429Z,3.67
2019-01-18T11:50:49.277Z,5.73
2019-01-18T11:53:31.047Z,3.30
2019-01-18T11:56:20.581Z,4.50
2019-01-18T11:59:21.789Z,5.63
2019-01-18T12:01:52.443Z,3.77
2019-01-18T12:04:42.047Z,4.47
2019-01-18T12:07:24.905Z,4.23
2019-01-18T12:13:42.992Z,3.00
2019-01-18T12:16:25.361Z,3.63
2019-01-18T12:19:15.079Z,5.27
2019-01-18T12:21:58.317Z,4.53
2019-01-18T12:27:54.571Z,2.70
2019-01-18T12:30:44.143Z,5.37
2019-01-18T12:33:33.778Z,2.50
2019-01-18T12:36:16.255Z,2.43
2019-01-18T12:39:45.938Z,7.10
2019-01-18T12:42:27.808Z,3.27
2019-01-18T12:48:44.955Z,3.00
2019-01-18T12:54:37.274Z,2.23
2019-01-18T12:57:19.814Z,3.63
2019-01-18T13:03:38.009Z,2.73
2019-01-18T13:06:27.672Z,3.87
2019-01-18T13:09:17.236Z,3.00
2019-01-18T13:11:59.421Z,3.27
2019-01-18T13:14:42.150Z,10.70
2019-01-18T13:17:31.745Z,3.87
2019-01-18T13:20:14.389Z,2.97
2019-01-18T13:23:03.921Z,2.00
2019-01-18T13:25:46.593Z,2.27
2019-01-18T13:31:31.217Z,3.97
2019-01-18T13:34:20.766Z,2.57
2019-01-18T13:37:03.401Z,2.57
2019-01-18T13:39:52.926Z,6.23
2019-01-18T13:42:35.232Z,2.60
2019-01-18T13:45:43.649Z,4.23
2019-01-18T13:48:26.322Z,3.00
2019-01-18T13:54:23.952Z,3.57
2019-01-18T14:00:20.586Z,3.27
2019-01-18T14:03:10.147Z,2.70
2019-01-18T14:05:59.710Z,4.43
2019-01-18T14:08:42.243Z,4.27
2019-01-18T14:11:31.811Z,4.07
2019-01-18T14:14:14.417Z,2.77
2019-01-18T14:17:03.959Z,2.60
2019-01-18T14:19:45.651Z,3.97
2019-01-18T14:22:35.186Z,4.53
2019-01-18T14:25:17.462Z,3.50
2019-01-18T14:28:09.746Z,3.77
2019-01-18T14:30:52.345Z,2.17
2019-01-18T14:33:41.909Z,2.37
2019-01-18T14:36:24.230Z,2.10
2019-01-18T14:39:08.615Z,3.93
2019-01-18T14:42:17.215Z,1.97
2019-01-18T14:45:04.526Z,4.17
2019-01-18T14:47:54.043Z,2.50
2019-01-18T14:51:02.603Z,5.03
2019-01-18T14:53:45.066Z,7.67
2019-01-18T14:56:34.597Z,3.87
2019-01-18T14:59:18.655Z,4.70
2019-01-18T15:02:08.233Z,10.87
2019-01-18T15:04:50.256Z,3.83
2019-01-18T15:07:39.835Z,6.13
2019-01-18T15:10:22.351Z,4.47
2019-01-18T15:13:31.522Z,5.90
2019-01-18T15:16:15.945Z,4.47
2019-01-18T15:19:05.566Z,4.87
2019-01-18T15:21:47.908Z,3.43
2019-01-18T15:24:30.133Z,4.37
2019-01-18T15:27:19.702Z,6.10
2019-01-18T15:30:01.854Z,4.97
2019-01-18T15:32:51.408Z,4.33
2019-01-18T15:35:35.710Z,6.00
2019-01-18T15:38:17.642Z,5.20
2019-01-18T15:44:10.709Z,7.53
2019-01-18T15:50:08.455Z,9.97
2019-01-18T15:52:58.106Z,7.80
2019-01-18T15:56:06.577Z,5.00
2019-01-18T15:58:48.927Z,4.07
2019-01-18T16:04:53.184Z,5.17
2019-01-18T16:10:25.247Z,4.47
2019-01-18T16:13:14.775Z,4.47
2019-01-18T16:16:16.034Z,5.07
2019-01-18T16:19:05.562Z,4.47
2019-01-18T16:21:49.067Z,4.97
2019-01-18T16:30:40.169Z,7.93
2019-01-18T16:34:10.376Z,5.33
2019-01-18T16:36:52.520Z,4.43
2019-01-18T16:39:42.080Z,11.47
2019-01-18T16:42:24.695Z,6.40
2019-01-18T16:45:14.268Z,7.17
2019-01-18T16:47:57.063Z,8.07
2019-01-18T16:50:46.942Z,6.50
2019-01-18T16:53:29.456Z,7.83
2019-01-18T16:56:18.956Z,6.73
2019-01-18T16:59:01.306Z,5.83
2019-01-18T17:01:50.834Z,6.13
2019-01-18T17:04:33.280Z,5.23
2019-01-18T17:07:15.514Z,7.47
2019-01-18T17:14:01.172Z,6.07
2019-01-18T17:16:45.063Z,5.97
2019-01-18T17:22:35.631Z,5.73
2019-01-18T17:25:17.821Z,6.23
2019-01-18T17:28:07.352Z,6.97
2019-01-18T17:30:49.176Z,9.07
2019-01-18T17:33:38.737Z,7.67
2019-01-18T17:36:41.332Z,7.00
2019-01-18T17:43:04.077Z,7.17
2019-01-18T17:46:32.500Z,6.37
2019-01-18T17:49:33.824Z,8.80
2019-01-18T17:53:03.705Z,6.90
2019-01-18T17:56:06.011Z,8.30
2019-01-18T18:02:51.220Z,7.80
2019-01-18T18:06:13.904Z,8.57
2019-01-18T18:12:49.466Z,12.50
2019-01-18T18:19:35.041Z,9.53
2019-01-18T18:23:02.768Z,9.23
2019-01-18T18:26:30.425Z,11.13
2019-01-18T18:29:56.375Z,9.77
2019-01-18T18:33:24.283Z,11.27
2019-01-18T18:36:31.171Z,14.03
2019-01-18T18:43:23.533Z,9.93
2019-01-18T18:46:23.830Z,10.80
2019-01-18T18:49:51.511Z,10.77
2019-01-18T18:52:51.742Z,14.13
2019-01-18T18:56:19.446Z,12.37
2019-01-18T18:59:21.700Z,13.37
2019-01-18T19:02:50.643Z,16.17
2019-01-18T19:05:58.014Z,12.93
2019-01-18T19:09:52.439Z,10.97
2019-01-18T19:19:36.873Z,12.60
2019-01-18T19:22:38.027Z,10.53
2019-01-18T19:26:05.921Z,25.13
2019-01-18T19:29:42.476Z,13.37
2019-01-18T19:32:51.922Z,11.63
2019-01-18T19:36:20.676Z,13.20
2019-01-18T19:39:48.323Z,11.10
2019-01-18T19:42:49.861Z,8.40
2019-01-18T19:46:17.811Z,7.17
2019-01-18T19:49:18.772Z,10.33
2019-01-18T19:56:02.223Z,9.73
2019-01-18T19:59:29.936Z,7.63
2019-01-18T20:06:22.086Z,10.77
2019-01-18T20:09:23.775Z,8.43
2019-01-18T20:12:51.472Z,11.50
2019-01-18T20:16:19.329Z,14.60
2019-01-18T20:19:20.937Z,14.60
2019-01-18T20:22:48.631Z,12.90
2019-01-18T20:29:33.242Z,13.27
2019-01-18T20:33:01.642Z,14.77
2019-01-18T20:36:03.281Z,10.93
2019-01-18T20:39:30.998Z,12.07
2019-01-18T20:42:20.251Z,9.33
2019-01-18T20:45:48.208Z,12.07
2019-01-18T20:48:50.450Z,12.40
2019-01-18T21:02:46.245Z,14.63
2019-01-18T21:05:53.836Z,17.90
2019-01-18T21:09:22.876Z,13.10
2019-01-18T21:12:26.307Z,13.73
2019-01-18T21:19:05.210Z,15.60
2019-01-18T21:26:07.268Z,15.17
2019-01-18T21:29:08.378Z,16.50
2019-01-18T21:32:36.086Z,13.90
2019-01-18T21:36:03.802Z,13.83
2019-01-18T21:39:04.841Z,15.10
2019-01-18T21:42:18.026Z,19.17
2019-01-18T21:45:19.336Z,16.87
2019-01-18T21:51:48.793Z,18.63
2019-01-18T21:54:52.861Z,15.93
2019-01-18T21:58:20.476Z,16.07
2019-01-18T22:01:22.391Z,16.60
2019-01-18T22:04:50.055Z,17.13
2019-01-18T22:07:50.905Z,19.23
2019-01-18T22:11:18.617Z,21.83
2019-01-18T22:21:30.311Z,19.53
2019-01-18T22:24:32.065Z,21.63
2019-01-18T22:27:59.707Z,17.47
2019-01-18T22:30:47.932Z,16.67
2019-01-18T22:34:20.129Z,17.43
2019-01-18T22:37:20.938Z,13.87
2019-01-18T22:40:48.585Z,14.77
2019-01-18T22:47:32.792Z,15.47
2019-01-18T22:50:34.251Z,14.20
2019-01-18T22:54:01.883Z,15.37
2019-01-18T22:57:03.514Z,17.00
2019-01-18T23:00:50.060Z,18.37
2019-01-18T23:03:40.266Z,18.30
2019-01-18T23:07:07.888Z,12.40
2019-01-18T23:10:15.090Z,10.97
2019-01-18T23:13:18.827Z,12.03
2019-01-18T23:16:46.512Z,13.03
2019-01-18T23:23:37.778Z,14.93
2019-01-18T23:26:40.223Z,17.97
2019-01-18T23:30:15.542Z,19.60
2019-01-18T23:33:17.144Z,22.87
2019-01-18T23:36:44.810Z,22.80
2019-01-18T23:39:47.948Z,19.33
2019-01-18T23:50:18.633Z,21.67
2019-01-18T23:53:46.339Z,20.07
2019-01-18T23:57:13.981Z,27.30
